createdAt,value
2022-08-16T00:00:45.000Z,18.31
2022-08-16T00:01:45.000Z,18.34
2022-08-16T00:02:45.000Z,18.36
2022-08-16T00:03:44.000Z,18.36
2022-08-16T00:04:44.000Z,18.41
2022-08-16T00:05:44.000Z,18.42
2022-08-16T00:06:44.000Z,18.46
2022-08-16T00:07:44.000Z,18.44
2022-08-16T00:08:44.000Z,18.44
2022-08-16T00:09:44.000Z,18.44
2022-08-16T00:10:44.000Z,18.41
2022-08-16T00:11:44.000Z,18.42
2022-08-16T00:12:44.000Z,18.49
2022-08-16T00:13:44.000Z,18.53
2022-08-16T00:14:44.000Z,18.56
2022-08-16T00:15:44.000Z,18.59
2022-08-16T00:16:44.000Z,18.68
2022-08-16T00:17:44.000Z,18.68
2022-08-16T00:18:44.000Z,18.71
2022-08-16T00:19:44.000Z,18.74
2022-08-16T00:20:44.000Z,18.71
2022-08-16T00:21:44.000Z,18.74
2022-08-16T00:22:44.000Z,18.74
2022-08-16T00:23:44.000Z,18.74
2022-08-16T00:24:44.000Z,18.71
2022-08-16T00:25:44.000Z,18.74
2022-08-16T00:26:44.000Z,18.74
2022-08-16T00:27:44.000Z,18.75
2022-08-16T00:28:44.000Z,18.71
2022-08-16T00:29:44.000Z,18.74
2022-08-16T00:30:44.000Z,18.71
2022-08-16T00:31:44.000Z,18.75
2022-08-16T00:32:44.000Z,18.75
2022-08-16T00:32:44.000Z,18.75
2022-08-16T00:33:44.000Z,18.76
2022-08-16T00:33:44.000Z,18.76
2022-08-16T00:34:44.000Z,18.75
2022-08-16T00:34:44.000Z,18.75
2022-08-16T00:35:44.000Z,18.75
2022-08-16T00:35:44.000Z,18.75
2022-08-16T00:36:44.000Z,18.75
2022-08-16T00:36:44.000Z,18.75
2022-08-16T00:37:44.000Z,18.72
2022-08-16T00:38:44.000Z,18.71
2022-08-16T00:39:44.000Z,18.75
2022-08-16T00:40:44.000Z,18.69
2022-08-16T00:41:44.000Z,18.68
2022-08-16T00:42:44.000Z,18.64
2022-08-16T00:43:44.000Z,18.64
2022-08-16T00:44:44.000Z,18.64
2022-08-16T00:45:44.000Z,18.62
2022-08-16T00:46:44.000Z,18.64
2022-08-16T00:47:44.000Z,18.60
2022-08-16T00:48:44.000Z,18.57
2022-08-16T00:49:44.000Z,18.62
2022-08-16T00:50:44.000Z,18.59
2022-08-16T00:51:44.000Z,18.56
2022-08-16T00:52:44.000Z,18.57
2022-08-16T00:52:44.000Z,18.57
2022-08-16T00:53:44.000Z,18.54
2022-08-16T00:53:44.000Z,18.54
2022-08-16T00:54:44.000Z,18.51
2022-08-16T00:54:44.000Z,18.51
2022-08-16T00:55:44.000Z,18.54
2022-08-16T00:55:44.000Z,18.54
2022-08-16T00:56:44.000Z,18.50
2022-08-16T00:56:44.000Z,18.50
2022-08-16T00:57:44.000Z,18.44
2022-08-16T00:58:44.000Z,18.42
2022-08-16T00:59:44.000Z,18.41
2022-08-16T01:00:44.000Z,18.36
2022-08-16T01:01:44.000Z,18.35
2022-08-16T01:02:44.000Z,18.32
2022-08-16T01:03:44.000Z,18.32
2022-08-16T01:04:44.000Z,18.28
2022-08-16T01:05:44.000Z,18.26
2022-08-16T01:06:44.000Z,18.21
2022-08-16T01:07:44.000Z,18.21
2022-08-16T01:08:44.000Z,18.23
2022-08-16T01:09:44.000Z,18.19
2022-08-16T01:10:44.000Z,18.19
2022-08-16T01:11:44.000Z,18.19
2022-08-16T01:12:44.000Z,18.17
2022-08-16T01:13:44.000Z,18.14
2022-08-16T01:14:44.000Z,18.13
2022-08-16T01:15:44.000Z,18.16
2022-08-16T01:16:44.000Z,18.16
2022-08-16T01:17:43.000Z,18.13
2022-08-16T01:18:43.000Z,18.11
2022-08-16T01:19:43.000Z,18.11
2022-08-16T01:20:43.000Z,18.16
2022-08-16T01:21:43.000Z,18.13
2022-08-16T01:22:43.000Z,18.16
2022-08-16T01:23:43.000Z,18.17
2022-08-16T01:24:43.000Z,18.20
2022-08-16T01:25:43.000Z,18.16
2022-08-16T01:26:43.000Z,18.17
2022-08-16T01:27:43.000Z,18.21
2022-08-16T01:27:43.000Z,18.21
2022-08-16T01:28:43.000Z,18.19
2022-08-16T01:28:43.000Z,18.19
2022-08-16T01:29:43.000Z,18.14
2022-08-16T01:29:43.000Z,18.14
2022-08-16T01:30:43.000Z,18.16
2022-08-16T01:30:43.000Z,18.16
2022-08-16T01:31:43.000Z,18.20
2022-08-16T01:31:43.000Z,18.20
2022-08-16T01:32:43.000Z,18.17
2022-08-16T01:33:43.000Z,18.17
2022-08-16T01:34:43.000Z,18.19
2022-08-16T01:35:43.000Z,18.16
2022-08-16T01:36:43.000Z,18.17
2022-08-16T01:37:43.000Z,18.19
2022-08-16T01:38:43.000Z,18.23
2022-08-16T01:39:43.000Z,18.21
2022-08-16T01:40:43.000Z,18.20
2022-08-16T01:41:43.000Z,18.21
2022-08-16T01:42:43.000Z,18.25
2022-08-16T01:43:43.000Z,18.20
2022-08-16T01:44:43.000Z,18.20
2022-08-16T01:45:43.000Z,18.23
2022-08-16T01:46:43.000Z,18.25
2022-08-16T01:47:43.000Z,18.25
2022-08-16T01:48:43.000Z,18.28
2022-08-16T01:49:43.000Z,18.28
2022-08-16T01:50:43.000Z,18.31
2022-08-16T01:51:43.000Z,18.31
2022-08-16T01:52:43.000Z,18.28
2022-08-16T01:53:43.000Z,18.28
2022-08-16T01:54:43.000Z,18.29
2022-08-16T01:55:43.000Z,18.29
2022-08-16T01:56:43.000Z,18.28
2022-08-16T01:57:43.000Z,18.34
2022-08-16T01:58:43.000Z,18.28
2022-08-16T01:59:43.000Z,18.29
2022-08-16T02:00:43.000Z,18.31
2022-08-16T02:01:43.000Z,18.34
2022-08-16T02:02:43.000Z,18.31
2022-08-16T02:03:43.000Z,18.31
2022-08-16T02:04:43.000Z,18.29
2022-08-16T02:05:43.000Z,18.26
2022-08-16T02:06:43.000Z,18.29
2022-08-16T02:07:43.000Z,18.31
2022-08-16T02:07:43.000Z,18.31
2022-08-16T02:08:43.000Z,18.34
2022-08-16T02:08:43.000Z,18.34
2022-08-16T02:09:43.000Z,18.32
2022-08-16T02:09:43.000Z,18.32
2022-08-16T02:10:43.000Z,18.31
2022-08-16T02:10:43.000Z,18.31
2022-08-16T02:11:43.000Z,18.32
2022-08-16T02:11:43.000Z,18.32
2022-08-16T02:12:43.000Z,18.32
2022-08-16T02:13:43.000Z,18.34
2022-08-16T02:14:43.000Z,18.31
2022-08-16T02:15:43.000Z,18.31
2022-08-16T02:16:43.000Z,18.35
2022-08-16T02:17:43.000Z,18.32
2022-08-16T02:18:43.000Z,18.32
2022-08-16T02:19:43.000Z,18.31
2022-08-16T02:20:43.000Z,18.29
2022-08-16T02:21:43.000Z,18.32
2022-08-16T02:22:43.000Z,18.32
2022-08-16T02:23:43.000Z,18.31
2022-08-16T02:24:43.000Z,18.34
2022-08-16T02:25:43.000Z,18.34
2022-08-16T02:26:43.000Z,18.32
2022-08-16T02:27:43.000Z,18.32
2022-08-16T02:27:43.000Z,18.32
2022-08-16T02:28:43.000Z,18.31
2022-08-16T02:28:43.000Z,18.31
2022-08-16T02:29:43.000Z,18.34
2022-08-16T02:29:43.000Z,18.34
2022-08-16T02:30:42.000Z,18.31
2022-08-16T02:30:42.000Z,18.31
2022-08-16T02:31:42.000Z,18.32
2022-08-16T02:31:42.000Z,18.32
2022-08-16T02:32:42.000Z,18.35
2022-08-16T02:33:42.000Z,18.31
2022-08-16T02:34:42.000Z,18.32
2022-08-16T02:35:42.000Z,18.28
2022-08-16T02:36:42.000Z,18.31
2022-08-16T02:37:42.000Z,18.29
2022-08-16T02:38:42.000Z,18.32
2022-08-16T02:39:42.000Z,18.28
2022-08-16T02:40:42.000Z,18.29
2022-08-16T02:41:42.000Z,18.28
2022-08-16T02:42:42.000Z,18.26
2022-08-16T02:42:42.000Z,18.26
2022-08-16T02:43:42.000Z,18.23
2022-08-16T02:43:42.000Z,18.23
2022-08-16T02:44:42.000Z,18.29
2022-08-16T02:44:42.000Z,18.29
2022-08-16T02:45:42.000Z,18.25
2022-08-16T02:45:42.000Z,18.25
2022-08-16T02:46:42.000Z,18.23
2022-08-16T02:46:42.000Z,18.23
2022-08-16T02:47:42.000Z,18.21
2022-08-16T02:48:42.000Z,18.23
2022-08-16T02:49:42.000Z,18.23
2022-08-16T02:50:42.000Z,18.20
2022-08-16T02:51:42.000Z,18.21
2022-08-16T02:52:42.000Z,18.23
2022-08-16T02:53:42.000Z,18.20
2022-08-16T02:54:42.000Z,18.20
2022-08-16T02:55:42.000Z,18.25
2022-08-16T02:56:42.000Z,18.23
2022-08-16T02:57:42.000Z,18.23
2022-08-16T02:57:42.000Z,18.23
2022-08-16T02:58:42.000Z,18.23
2022-08-16T02:58:42.000Z,18.23
2022-08-16T02:59:42.000Z,18.21
2022-08-16T02:59:42.000Z,18.21
2022-08-16T03:00:42.000Z,18.21
2022-08-16T03:00:42.000Z,18.21
2022-08-16T03:01:42.000Z,18.21
2022-08-16T03:01:42.000Z,18.21
2022-08-16T03:02:42.000Z,18.20
2022-08-16T03:03:42.000Z,18.21
2022-08-16T03:04:42.000Z,18.19
2022-08-16T03:05:42.000Z,18.17
2022-08-16T03:06:42.000Z,18.20
2022-08-16T03:07:42.000Z,18.19
2022-08-16T03:07:42.000Z,18.19
2022-08-16T03:08:42.000Z,18.16
2022-08-16T03:08:42.000Z,18.16
2022-08-16T03:09:42.000Z,18.14
2022-08-16T03:09:42.000Z,18.14
2022-08-16T03:10:42.000Z,18.13
2022-08-16T03:10:42.000Z,18.13
2022-08-16T03:11:42.000Z,18.13
2022-08-16T03:11:42.000Z,18.13
2022-08-16T03:12:42.000Z,18.09
2022-08-16T03:13:42.000Z,18.10
2022-08-16T03:14:42.000Z,18.05
2022-08-16T03:15:42.000Z,18.05
2022-08-16T03:16:42.000Z,18.01
2022-08-16T03:17:42.000Z,17.98
2022-08-16T03:18:42.000Z,17.99
2022-08-16T03:19:42.000Z,17.98
2022-08-16T03:20:42.000Z,17.95
2022-08-16T03:21:42.000Z,17.91
2022-08-16T03:22:42.000Z,17.92
2022-08-16T03:23:42.000Z,17.91
2022-08-16T03:24:42.000Z,17.91
2022-08-16T03:25:42.000Z,17.91
2022-08-16T03:26:42.000Z,17.89
2022-08-16T03:27:42.000Z,17.91
2022-08-16T03:28:42.000Z,17.89
2022-08-16T03:29:42.000Z,17.86
2022-08-16T03:30:42.000Z,17.86
2022-08-16T03:31:42.000Z,17.87
2022-08-16T03:32:42.000Z,17.87
2022-08-16T03:32:42.000Z,17.87
2022-08-16T03:32:42.000Z,17.87
2022-08-16T03:33:42.000Z,17.84
2022-08-16T03:33:42.000Z,17.84
2022-08-16T03:33:42.000Z,17.84
2022-08-16T03:34:42.000Z,17.86
2022-08-16T03:34:42.000Z,17.86
2022-08-16T03:34:42.000Z,17.86
2022-08-16T03:35:42.000Z,17.84
2022-08-16T03:35:42.000Z,17.84
2022-08-16T03:35:42.000Z,17.84
2022-08-16T03:36:42.000Z,17.87
2022-08-16T03:36:42.000Z,17.87
2022-08-16T03:36:42.000Z,17.87
2022-08-16T03:37:42.000Z,17.84
2022-08-16T03:37:42.000Z,17.84
2022-08-16T03:38:42.000Z,17.81
2022-08-16T03:38:42.000Z,17.81
2022-08-16T03:39:42.000Z,17.86
2022-08-16T03:39:42.000Z,17.86
2022-08-16T03:40:42.000Z,17.81
2022-08-16T03:40:42.000Z,17.81
2022-08-16T03:41:42.000Z,17.83
2022-08-16T03:41:42.000Z,17.83
2022-08-16T03:42:42.000Z,17.86
2022-08-16T03:43:41.000Z,17.86
2022-08-16T03:44:41.000Z,17.86
2022-08-16T03:45:41.000Z,17.84
2022-08-16T03:46:41.000Z,17.84
2022-08-16T03:48:59.000Z,17.84
2022-08-16T03:48:59.000Z,17.83
2022-08-16T03:49:59.000Z,17.84
2022-08-16T03:50:59.000Z,17.84
2022-08-16T03:51:59.000Z,17.81
2022-08-16T03:52:59.000Z,17.86
2022-08-16T03:53:59.000Z,17.84
2022-08-16T03:54:59.000Z,17.87
2022-08-16T03:55:59.000Z,17.83
2022-08-16T03:56:59.000Z,17.86
2022-08-16T03:57:59.000Z,17.86
2022-08-16T03:58:59.000Z,17.83
2022-08-16T03:59:59.000Z,17.83
2022-08-16T04:00:59.000Z,17.86
2022-08-16T04:01:59.000Z,17.83
2022-08-16T04:02:59.000Z,17.84
2022-08-16T04:02:59.000Z,17.84
2022-08-16T04:02:59.000Z,17.84
2022-08-16T04:03:59.000Z,17.83
2022-08-16T04:03:59.000Z,17.83
2022-08-16T04:03:59.000Z,17.83
2022-08-16T04:04:59.000Z,17.83
2022-08-16T04:04:59.000Z,17.83
2022-08-16T04:04:59.000Z,17.83
2022-08-16T04:05:59.000Z,17.80
2022-08-16T04:05:59.000Z,17.80
2022-08-16T04:05:59.000Z,17.80
2022-08-16T04:06:59.000Z,17.80
2022-08-16T04:06:59.000Z,17.80
2022-08-16T04:06:59.000Z,17.80
2022-08-16T04:07:59.000Z,17.80
2022-08-16T04:07:59.000Z,17.80
2022-08-16T04:08:59.000Z,17.81
2022-08-16T04:08:59.000Z,17.81
2022-08-16T04:09:59.000Z,17.81
2022-08-16T04:09:59.000Z,17.81
2022-08-16T04:10:59.000Z,17.81
2022-08-16T04:10:59.000Z,17.81
2022-08-16T04:11:59.000Z,17.76
2022-08-16T04:11:59.000Z,17.76
2022-08-16T04:12:59.000Z,17.79
2022-08-16T04:13:59.000Z,17.79
2022-08-16T04:14:59.000Z,17.80
2022-08-16T04:15:59.000Z,17.84
2022-08-16T04:16:59.000Z,17.83
2022-08-16T04:17:59.000Z,17.86
2022-08-16T04:18:59.000Z,17.86
2022-08-16T04:19:59.000Z,17.91
2022-08-16T04:20:59.000Z,17.92
2022-08-16T04:21:59.000Z,17.94
2022-08-16T04:22:59.000Z,17.94
2022-08-16T04:22:59.000Z,17.94
2022-08-16T04:23:59.000Z,17.95
2022-08-16T04:23:59.000Z,17.95
2022-08-16T04:24:59.000Z,17.96
2022-08-16T04:24:59.000Z,17.96
2022-08-16T04:25:59.000Z,17.98
2022-08-16T04:25:59.000Z,17.98
2022-08-16T04:26:59.000Z,17.99
2022-08-16T04:26:59.000Z,17.99
2022-08-16T04:27:59.000Z,17.99
2022-08-16T04:28:59.000Z,18.04
2022-08-16T04:29:59.000Z,18.07
2022-08-16T04:30:59.000Z,18.07
2022-08-16T04:31:59.000Z,18.07
2022-08-16T04:32:59.000Z,18.10
2022-08-16T04:32:59.000Z,18.10
2022-08-16T04:33:58.000Z,18.10
2022-08-16T04:33:58.000Z,18.10
2022-08-16T04:34:58.000Z,18.11
2022-08-16T04:34:58.000Z,18.11
2022-08-16T04:35:58.000Z,18.10
2022-08-16T04:35:58.000Z,18.10
2022-08-16T04:36:58.000Z,18.13
2022-08-16T04:36:58.000Z,18.13
2022-08-16T04:37:58.000Z,18.16
2022-08-16T04:38:58.000Z,18.11
2022-08-16T04:39:58.000Z,18.17
2022-08-16T04:40:58.000Z,18.17
2022-08-16T04:41:58.000Z,18.19
2022-08-16T04:42:58.000Z,18.21
2022-08-16T04:43:58.000Z,18.25
2022-08-16T04:44:58.000Z,18.25
2022-08-16T04:45:58.000Z,18.29
2022-08-16T04:46:58.000Z,18.28
2022-08-16T04:47:58.000Z,18.31
2022-08-16T04:48:58.000Z,18.29
2022-08-16T04:49:58.000Z,18.31
2022-08-16T04:50:58.000Z,18.32
2022-08-16T04:51:58.000Z,18.31
2022-08-16T04:52:58.000Z,18.32
2022-08-16T04:52:58.000Z,18.32
2022-08-16T04:53:58.000Z,18.28
2022-08-16T04:53:58.000Z,18.28
2022-08-16T04:54:58.000Z,18.28
2022-08-16T04:54:58.000Z,18.28
2022-08-16T04:55:58.000Z,18.34
2022-08-16T04:55:58.000Z,18.34
2022-08-16T04:56:58.000Z,18.32
2022-08-16T04:56:58.000Z,18.32
2022-08-16T04:57:58.000Z,18.31
2022-08-16T04:58:58.000Z,18.31
2022-08-16T04:59:58.000Z,18.31
2022-08-16T05:00:58.000Z,18.34
2022-08-16T05:01:58.000Z,18.34
2022-08-16T05:02:58.000Z,18.35
2022-08-16T05:02:58.000Z,18.35
2022-08-16T05:02:58.000Z,18.35
2022-08-16T05:03:58.000Z,18.38
2022-08-16T05:03:58.000Z,18.38
2022-08-16T05:03:58.000Z,18.38
2022-08-16T05:04:58.000Z,18.39
2022-08-16T05:04:58.000Z,18.39
2022-08-16T05:04:58.000Z,18.39
2022-08-16T05:05:58.000Z,18.44
2022-08-16T05:05:58.000Z,18.44
2022-08-16T05:05:58.000Z,18.44
2022-08-16T05:06:58.000Z,18.39
2022-08-16T05:06:58.000Z,18.39
2022-08-16T05:06:58.000Z,18.39
2022-08-16T05:07:58.000Z,18.46
2022-08-16T05:07:58.000Z,18.46
2022-08-16T05:08:58.000Z,18.49
2022-08-16T05:08:58.000Z,18.49
2022-08-16T05:09:58.000Z,18.51
2022-08-16T05:09:58.000Z,18.51
2022-08-16T05:10:58.000Z,18.51
2022-08-16T05:10:58.000Z,18.51
2022-08-16T05:11:58.000Z,18.54
2022-08-16T05:11:58.000Z,18.54
2022-08-16T05:12:58.000Z,18.59
2022-08-16T05:13:58.000Z,18.59
2022-08-16T05:14:58.000Z,18.62
2022-08-16T05:15:58.000Z,18.65
2022-08-16T05:16:58.000Z,18.65
2022-08-16T05:19:15.000Z,18.69
2022-08-16T05:19:15.000Z,18.66
2022-08-16T05:20:15.000Z,18.68
2022-08-16T05:21:15.000Z,18.72
2022-08-16T05:22:15.000Z,18.74
2022-08-16T05:23:15.000Z,18.79
2022-08-16T05:23:15.000Z,18.79
2022-08-16T05:24:15.000Z,18.78
2022-08-16T05:24:15.000Z,18.78
2022-08-16T05:25:15.000Z,18.84
2022-08-16T05:25:15.000Z,18.84
2022-08-16T05:26:15.000Z,18.86
2022-08-16T05:26:15.000Z,18.86
2022-08-16T05:27:15.000Z,18.83
2022-08-16T05:27:15.000Z,18.83
2022-08-16T05:28:15.000Z,18.89
2022-08-16T05:29:15.000Z,18.91
2022-08-16T05:30:15.000Z,18.94
2022-08-16T05:31:15.000Z,18.97
2022-08-16T05:32:15.000Z,19.01
2022-08-16T05:33:15.000Z,19.05
2022-08-16T05:33:15.000Z,19.05
2022-08-16T05:34:15.000Z,19.09
2022-08-16T05:34:15.000Z,19.09
2022-08-16T05:35:15.000Z,19.10
2022-08-16T05:35:15.000Z,19.10
2022-08-16T05:36:15.000Z,19.13
2022-08-16T05:36:15.000Z,19.13
2022-08-16T05:37:15.000Z,19.16
2022-08-16T05:37:15.000Z,19.16
2022-08-16T05:38:15.000Z,19.15
2022-08-16T05:39:15.000Z,19.21
2022-08-16T05:40:15.000Z,19.25
2022-08-16T05:41:15.000Z,19.24
2022-08-16T05:42:15.000Z,19.30
2022-08-16T05:43:15.000Z,19.32
2022-08-16T05:44:15.000Z,19.35
2022-08-16T05:45:15.000Z,19.42
2022-08-16T05:46:15.000Z,19.43
2022-08-16T05:47:15.000Z,19.49
2022-08-16T05:48:15.000Z,19.50
2022-08-16T05:49:15.000Z,19.55
2022-08-16T05:50:15.000Z,19.60
2022-08-16T05:51:15.000Z,19.61
2022-08-16T05:52:15.000Z,19.64
2022-08-16T05:53:15.000Z,19.70
2022-08-16T05:53:15.000Z,19.70
2022-08-16T05:54:15.000Z,19.68
2022-08-16T05:54:15.000Z,19.68
2022-08-16T05:55:15.000Z,19.70
2022-08-16T05:55:15.000Z,19.70
2022-08-16T05:56:15.000Z,19.75
2022-08-16T05:56:15.000Z,19.75
2022-08-16T05:57:15.000Z,19.83
2022-08-16T05:57:15.000Z,19.83
2022-08-16T05:58:15.000Z,19.85
2022-08-16T05:59:15.000Z,19.83
2022-08-16T06:00:15.000Z,19.87
2022-08-16T06:01:14.000Z,19.89
2022-08-16T06:02:14.000Z,19.94
2022-08-16T06:03:14.000Z,19.97
2022-08-16T06:03:14.000Z,19.97
2022-08-16T06:03:14.000Z,19.97
2022-08-16T06:04:14.000Z,20.00
2022-08-16T06:04:14.000Z,20.00
2022-08-16T06:04:14.000Z,20.00
2022-08-16T06:05:14.000Z,20.02
2022-08-16T06:05:14.000Z,20.02
2022-08-16T06:05:14.000Z,20.02
2022-08-16T06:06:14.000Z,20.04
2022-08-16T06:06:14.000Z,20.04
2022-08-16T06:06:14.000Z,20.04
2022-08-16T06:07:14.000Z,20.08
2022-08-16T06:07:14.000Z,20.08
2022-08-16T06:07:14.000Z,20.08
2022-08-16T06:08:14.000Z,20.12
2022-08-16T06:08:14.000Z,20.12
2022-08-16T06:09:14.000Z,20.12
2022-08-16T06:09:14.000Z,20.12
2022-08-16T06:10:14.000Z,20.19
2022-08-16T06:10:14.000Z,20.19
2022-08-16T06:11:14.000Z,20.19
2022-08-16T06:11:14.000Z,20.19
2022-08-16T06:12:14.000Z,20.25
2022-08-16T06:12:14.000Z,20.25
2022-08-16T06:13:14.000Z,20.25
2022-08-16T06:14:14.000Z,20.30
2022-08-16T06:15:14.000Z,20.33
2022-08-16T06:16:14.000Z,20.34
2022-08-16T06:17:14.000Z,20.38
2022-08-16T06:18:14.000Z,20.41
2022-08-16T06:19:14.000Z,20.42
2022-08-16T06:20:14.000Z,20.48
2022-08-16T06:21:14.000Z,20.46
2022-08-16T06:22:14.000Z,20.53
2022-08-16T06:23:14.000Z,20.54
2022-08-16T06:23:14.000Z,20.54
2022-08-16T06:24:14.000Z,20.58
2022-08-16T06:24:14.000Z,20.58
2022-08-16T06:25:14.000Z,20.58
2022-08-16T06:25:14.000Z,20.58
2022-08-16T06:26:14.000Z,20.60
2022-08-16T06:26:14.000Z,20.60
2022-08-16T06:27:14.000Z,20.66
2022-08-16T06:27:14.000Z,20.66
2022-08-16T06:28:14.000Z,20.63
2022-08-16T06:29:14.000Z,20.66
2022-08-16T06:30:14.000Z,20.68
2022-08-16T06:31:14.000Z,20.76
2022-08-16T06:32:14.000Z,20.75
2022-08-16T06:33:14.000Z,20.76
2022-08-16T06:33:14.000Z,20.76
2022-08-16T06:34:14.000Z,20.79
2022-08-16T06:34:14.000Z,20.79
2022-08-16T06:35:14.000Z,20.83
2022-08-16T06:35:14.000Z,20.83
2022-08-16T06:36:14.000Z,20.85
2022-08-16T06:36:14.000Z,20.85
2022-08-16T06:37:14.000Z,20.82
2022-08-16T06:37:14.000Z,20.82
2022-08-16T06:38:14.000Z,20.87
2022-08-16T06:39:14.000Z,20.94
2022-08-16T06:40:14.000Z,20.90
2022-08-16T06:41:14.000Z,20.94
2022-08-16T06:42:14.000Z,20.96
2022-08-16T06:43:14.000Z,21.01
2022-08-16T06:43:14.000Z,21.01
2022-08-16T06:44:14.000Z,21.01
2022-08-16T06:44:14.000Z,21.01
2022-08-16T06:45:14.000Z,21.05
2022-08-16T06:45:14.000Z,21.05
2022-08-16T06:46:14.000Z,21.11
2022-08-16T06:46:14.000Z,21.11
2022-08-16T06:47:14.000Z,21.12
2022-08-16T06:47:14.000Z,21.12
2022-08-16T06:48:14.000Z,21.15
2022-08-16T06:49:14.000Z,21.21
2022-08-16T06:50:14.000Z,21.27
2022-08-16T06:51:14.000Z,21.27
2022-08-16T06:52:14.000Z,21.27
2022-08-16T06:53:14.000Z,21.31
2022-08-16T06:53:14.000Z,21.31
2022-08-16T06:54:14.000Z,21.37
2022-08-16T06:54:14.000Z,21.37
2022-08-16T06:55:14.000Z,21.37
2022-08-16T06:55:14.000Z,21.37
2022-08-16T06:56:14.000Z,21.38
2022-08-16T06:56:14.000Z,21.38
2022-08-16T06:57:14.000Z,21.40
2022-08-16T06:57:14.000Z,21.40
2022-08-16T06:58:14.000Z,21.46
2022-08-16T06:59:14.000Z,21.46
2022-08-16T07:00:14.000Z,21.49
2022-08-16T07:01:14.000Z,21.51
2022-08-16T07:02:14.000Z,21.56
2022-08-16T07:03:14.000Z,21.63
2022-08-16T07:04:14.000Z,21.61
2022-08-16T07:05:14.000Z,21.67
2022-08-16T07:06:14.000Z,21.67
2022-08-16T07:07:14.000Z,21.71
2022-08-16T07:08:14.000Z,21.74
2022-08-16T07:08:14.000Z,21.74
2022-08-16T07:09:14.000Z,21.75
2022-08-16T07:09:14.000Z,21.75
2022-08-16T07:10:14.000Z,21.77
2022-08-16T07:10:14.000Z,21.77
2022-08-16T07:11:14.000Z,21.77
2022-08-16T07:11:14.000Z,21.77
2022-08-16T07:12:14.000Z,21.82
2022-08-16T07:12:14.000Z,21.82
2022-08-16T07:13:14.000Z,21.81
2022-08-16T07:14:13.000Z,21.85
2022-08-16T07:15:13.000Z,21.89
2022-08-16T07:16:13.000Z,21.98
2022-08-16T07:17:13.000Z,21.98
2022-08-16T07:18:13.000Z,22.04
2022-08-16T07:18:13.000Z,22.04
2022-08-16T07:19:13.000Z,22.05
2022-08-16T07:19:13.000Z,22.05
2022-08-16T07:20:13.000Z,22.06
2022-08-16T07:20:13.000Z,22.06
2022-08-16T07:21:13.000Z,22.12
2022-08-16T07:21:13.000Z,22.12
2022-08-16T07:22:13.000Z,22.15
2022-08-16T07:22:13.000Z,22.15
2022-08-16T07:23:13.000Z,22.19
2022-08-16T07:24:13.000Z,22.20
2022-08-16T07:25:13.000Z,22.26
2022-08-16T07:26:13.000Z,22.26
2022-08-16T07:27:13.000Z,22.31
2022-08-16T07:28:13.000Z,22.36
2022-08-16T07:28:13.000Z,22.36
2022-08-16T07:28:13.000Z,22.36
2022-08-16T07:29:13.000Z,22.41
2022-08-16T07:29:13.000Z,22.41
2022-08-16T07:29:13.000Z,22.41
2022-08-16T07:30:13.000Z,22.41
2022-08-16T07:30:13.000Z,22.41
2022-08-16T07:30:13.000Z,22.41
2022-08-16T07:31:13.000Z,22.45
2022-08-16T07:31:13.000Z,22.45
2022-08-16T07:31:13.000Z,22.45
2022-08-16T07:32:13.000Z,22.51
2022-08-16T07:32:13.000Z,22.51
2022-08-16T07:32:13.000Z,22.51
2022-08-16T07:33:13.000Z,22.57
2022-08-16T07:33:13.000Z,22.57
2022-08-16T07:34:13.000Z,22.61
2022-08-16T07:34:13.000Z,22.61
2022-08-16T07:35:13.000Z,22.66
2022-08-16T07:35:13.000Z,22.66
2022-08-16T07:36:13.000Z,22.72
2022-08-16T07:36:13.000Z,22.72
2022-08-16T07:37:13.000Z,22.70
2022-08-16T07:37:13.000Z,22.70
2022-08-16T07:38:13.000Z,22.70
2022-08-16T07:39:13.000Z,22.72
2022-08-16T07:40:13.000Z,22.75
2022-08-16T07:41:13.000Z,22.76
2022-08-16T07:42:13.000Z,22.81
2022-08-16T07:43:13.000Z,22.89
2022-08-16T07:44:13.000Z,22.96
2022-08-16T07:45:13.000Z,23.06
2022-08-16T07:46:13.000Z,23.18
2022-08-16T07:47:13.000Z,23.37
2022-08-16T07:48:13.000Z,23.53
2022-08-16T07:49:13.000Z,23.71
2022-08-16T07:50:13.000Z,23.89
2022-08-16T07:51:13.000Z,24.15
2022-08-16T07:52:13.000Z,24.39
2022-08-16T07:53:13.000Z,24.64
2022-08-16T07:53:13.000Z,24.64
2022-08-16T07:53:13.000Z,24.64
2022-08-16T07:54:13.000Z,24.93
2022-08-16T07:54:13.000Z,24.93
2022-08-16T07:54:13.000Z,24.93
2022-08-16T07:55:13.000Z,25.35
2022-08-16T07:55:13.000Z,25.35
2022-08-16T07:55:13.000Z,25.35
2022-08-16T07:56:13.000Z,25.71
2022-08-16T07:56:13.000Z,25.71
2022-08-16T07:56:13.000Z,25.71
2022-08-16T07:57:13.000Z,26.09
2022-08-16T07:57:13.000Z,26.09
2022-08-16T07:57:13.000Z,26.09
2022-08-16T07:58:13.000Z,26.54
2022-08-16T07:58:13.000Z,26.54
2022-08-16T07:59:13.000Z,26.87
2022-08-16T07:59:13.000Z,26.87
2022-08-16T08:00:13.000Z,27.24
2022-08-16T08:00:13.000Z,27.24
2022-08-16T08:01:13.000Z,27.52
2022-08-16T08:01:13.000Z,27.52
2022-08-16T08:02:13.000Z,27.80
2022-08-16T08:02:13.000Z,27.80
2022-08-16T08:03:13.000Z,28.06
2022-08-16T08:04:13.000Z,28.30
2022-08-16T08:05:13.000Z,28.55
2022-08-16T08:06:13.000Z,28.82
2022-08-16T08:07:13.000Z,29.02
2022-08-16T08:09:30.000Z,29.57
2022-08-16T08:09:30.000Z,29.37
2022-08-16T08:09:30.000Z,29.57
2022-08-16T08:09:30.000Z,29.37
2022-08-16T08:09:30.000Z,29.37
2022-08-16T08:09:30.000Z,29.57
2022-08-16T08:10:30.000Z,29.79
2022-08-16T08:10:30.000Z,29.79
2022-08-16T08:10:30.000Z,29.79
2022-08-16T08:11:30.000Z,30.01
2022-08-16T08:11:30.000Z,30.01
2022-08-16T08:11:30.000Z,30.01
2022-08-16T08:12:30.000Z,30.15
2022-08-16T08:12:30.000Z,30.15
2022-08-16T08:12:30.000Z,30.15
2022-08-16T08:13:30.000Z,30.21
2022-08-16T08:13:30.000Z,30.21
2022-08-16T08:14:30.000Z,30.22
2022-08-16T08:14:30.000Z,30.22
2022-08-16T08:15:30.000Z,30.15
2022-08-16T08:15:30.000Z,30.15
2022-08-16T08:16:30.000Z,30.13
2022-08-16T08:16:30.000Z,30.13
2022-08-16T08:17:30.000Z,30.22
2022-08-16T08:17:30.000Z,30.22
2022-08-16T08:18:30.000Z,30.44
2022-08-16T08:19:30.000Z,30.60
2022-08-16T08:20:30.000Z,30.72
2022-08-16T08:21:30.000Z,30.57
2022-08-16T08:22:30.000Z,30.57
2022-08-16T08:23:30.000Z,30.59
2022-08-16T08:24:30.000Z,30.81
2022-08-16T08:25:30.000Z,30.98
2022-08-16T08:26:30.000Z,31.05
2022-08-16T08:27:30.000Z,31.18
2022-08-16T08:28:30.000Z,31.27
2022-08-16T08:28:30.000Z,31.27
2022-08-16T08:28:30.000Z,31.27
2022-08-16T08:29:30.000Z,31.41
2022-08-16T08:29:30.000Z,31.41
2022-08-16T08:29:30.000Z,31.41
2022-08-16T08:30:29.000Z,31.52
2022-08-16T08:30:29.000Z,31.52
2022-08-16T08:30:29.000Z,31.52
2022-08-16T08:31:29.000Z,31.65
2022-08-16T08:31:29.000Z,31.65
2022-08-16T08:31:29.000Z,31.65
2022-08-16T08:32:29.000Z,31.76
2022-08-16T08:32:29.000Z,31.76
2022-08-16T08:32:29.000Z,31.76
2022-08-16T08:33:29.000Z,31.79
2022-08-16T08:33:29.000Z,31.79
2022-08-16T08:34:29.000Z,31.92
2022-08-16T08:34:29.000Z,31.92
2022-08-16T08:35:29.000Z,32.05
2022-08-16T08:35:29.000Z,32.05
2022-08-16T08:36:29.000Z,32.16
2022-08-16T08:36:29.000Z,32.16
2022-08-16T08:37:29.000Z,32.12
2022-08-16T08:37:29.000Z,32.12
2022-08-16T08:38:29.000Z,32.12
2022-08-16T08:39:29.000Z,32.17
2022-08-16T08:40:29.000Z,32.21
2022-08-16T08:41:29.000Z,32.31
2022-08-16T08:42:29.000Z,32.46
2022-08-16T08:43:29.000Z,32.59
2022-08-16T08:44:29.000Z,32.47
2022-08-16T08:45:29.000Z,32.51
2022-08-16T08:46:29.000Z,32.62
2022-08-16T08:47:29.000Z,32.68
2022-08-16T08:48:29.000Z,32.72
2022-08-16T08:49:29.000Z,32.81
2022-08-16T08:50:29.000Z,32.96
2022-08-16T08:51:29.000Z,33.07
2022-08-16T08:52:29.000Z,33.17
2022-08-16T08:53:29.000Z,33.11
2022-08-16T08:54:29.000Z,33.15
2022-08-16T08:55:29.000Z,33.28
2022-08-16T08:56:29.000Z,33.34
2022-08-16T08:57:29.000Z,33.35
2022-08-16T08:58:29.000Z,33.18
2022-08-16T08:59:29.000Z,33.12
2022-08-16T09:00:29.000Z,33.07
2022-08-16T09:01:29.000Z,33.15
2022-08-16T09:02:29.000Z,32.95
2022-08-16T09:03:29.000Z,32.61
2022-08-16T09:04:29.000Z,32.31
2022-08-16T09:05:29.000Z,31.94
2022-08-16T09:06:29.000Z,31.94
2022-08-16T09:07:29.000Z,32.13
2022-08-16T09:08:29.000Z,32.31
2022-08-16T09:08:29.000Z,32.31
2022-08-16T09:09:29.000Z,32.50
2022-08-16T09:09:29.000Z,32.50
2022-08-16T09:10:29.000Z,32.68
2022-08-16T09:10:29.000Z,32.68